Latest Weather Observations for Noonamah

IDD60901

Issued at 6:05 pm CST Tuesday 29 July 2014 (issued every 10 minutes, with the page automatically refreshed every 10 minutes)

About weather observations | Map of Darwin area stations | Latest observations for Darwin area | Other Formats
Station Details ID: 014314 Name: NOONAMAH AIRSTRIP Lat: -12.61 Lon: 131.05 Height: 17.5 m
Data from the previous 72 hours. | See also: Recent months for locations in Northern Territory
Date/Time
CST
Tmp

°C
App
Tmp
°C
Dew
Point
°C
Rel
Hum
%
Delta-T

°C
Wind Press
QNH
hPa
Press
MSL
hPa
Rain
since
9 am
mm
Dir
 
Spd
km/h
Gust
km/h
Spd
kts
Gust
kts
29/06:00pm 29.6 29.4 14.6 40 9.1 NNE 9 17 5 9 1012.2 1012.1 0.0
29/05:30pm 31.2 30.6 13.5 34 10.6 ENE 9 20 5 11 1011.9 1011.8 0.0
29/05:00pm 32.0 30.3 11.2 28 12.1 ENE 11 19 6 10 1011.6 - 0.0
29/04:30pm 32.5 30.2 10.5 26 12.7 E 13 20 7 11 1011.6 1011.5 0.0
29/04:00pm 33.1 31.0 11.0 26 12.9 E 13 20 7 11 1011.5 - 0.0
29/03:30pm 32.8 30.2 10.8 26 12.8 ESE 15 26 8 14 1011.6 1011.5 0.0
29/03:00pm 33.1 29.7 10.4 25 13.1 ESE 19 33 10 18 1011.9 1011.8 0.0
29/02:30pm 33.3 30.6 11.8 27 12.7 ESE 17 33 9 18 1012.2 1012.1 0.0
29/02:00pm 33.0 29.7 11.5 27 12.6 ESE 20 37 11 20 1012.6 - 0.0
29/01:30pm 33.0 29.5 12.1 28 12.4 SE 22 35 12 19 1013.1 1013.0 0.0
29/01:00pm 32.3 29.2 13.5 32 11.3 E 22 32 12 17 1013.7 - 0.0
29/12:30pm 31.6 29.6 13.8 34 10.8 E 17 30 9 16 1014.4 1014.3 0.0
29/12:00pm 31.3 28.4 14.0 35 10.5 ESE 22 35 12 19 1014.9 1014.8 0.0
29/11:30am 30.8 29.0 14.4 36 10.0 E 17 30 9 16 1015.4 1015.3 0.0
29/11:00am 29.9 27.5 14.4 38 9.4 ESE 20 33 11 18 1015.9 - 0.0
29/10:30am 29.0 27.6 15.5 44 8.3 E 17 24 9 13 1016.1 1016.0 0.0
29/10:00am 28.2 27.5 16.5 49 7.3 E 15 28 8 15 1016.2 - 0.0
29/09:30am 27.4 28.0 17.8 55 6.1 E 11 17 6 9 1016.3 1016.2 0.0
29/09:00am 25.7 28.1 20.0 71 3.7 ESE 7 13 4 7 1016.3 1016.2 0.0
29/08:30am 23.1 25.5 18.8 77 2.7 ESE 4 7 2 4 1016.2 1016.1 0.0
29/08:00am 20.5 23.3 17.9 85 1.6 CALM 0 0 0 0 1016.1 - 0.0
29/07:30am 17.9 19.9 16.1 89 1.1 CALM 0 0 0 0 1015.8 1015.7 0.0
29/07:00am 17.5 19.4 15.8 90 1.0 CALM 0 0 0 0 1015.6 - 0.0
29/06:30am 17.9 20.0 16.2 90 1.0 CALM 0 0 0 0 1015.3 1015.2 0.0
29/06:00am 18.3 20.5 16.6 90 1.0 CALM 0 0 0 0 1014.9 1014.8 0.0
29/05:30am 18.6 20.9 16.8 89 1.1 CALM 0 0 0 0 1014.6 1014.5 0.0
29/05:00am 18.4 20.6 16.6 89 1.1 CALM 0 0 0 0 1014.4 - 0.0
29/04:30am 18.4 20.6 16.6 89 1.1 CALM 0 0 0 0 1014.2 1014.1 0.0
29/04:00am 18.4 20.6 16.6 89 1.1 CALM 0 0 0 0 1014.2 - 0.0
29/03:30am 18.7 20.7 16.1 85 1.5 CALM 0 0 0 0 1014.1 1014.0 0.0
29/03:00am 19.5 21.9 17.1 86 1.5 CALM 0 0 0 0 1014.3 1014.2 0.0
29/02:30am 19.9 22.5 17.5 86 1.5 CALM 0 0 0 0 1014.5 1014.4 0.0
29/02:00am 19.7 22.1 17.1 85 1.6 CALM 0 0 0 0 1014.7 - 0.0
29/01:30am 19.6 21.8 16.6 83 1.8 CALM 0 0 0 0 1014.8 1014.7 0.0
29/01:00am 20.8 22.4 17.0 79 2.3 ENE 4 4 2 2 1015.0 - 0.0
29/12:30am 21.2 23.6 17.0 77 2.6 CALM 0 0 0 0 1014.8 1014.7 0.0
29/12:00am 23.1 25.3 18.4 75 3.0 S 4 6 2 3 1014.9 1014.8 0.0
 
Date/Time
CST
Tmp

°C
App
Tmp
°C
Dew
Point
°C
Rel
Hum
%
Delta-T

°C
Wind Press
QNH
hPa
Press
MSL
hPa
Rain
since
9 am
mm
Dir
 
Spd
km/h
Gust
km/h
Spd
kts
Gust
kts
28/11:30pm 23.3 25.1 18.8 76 2.8 S 7 11 4 6 1015.0 1014.9 0.0
28/11:00pm 22.9 25.1 18.4 76 2.8 S 4 6 2 3 1014.9 - 0.0
28/10:30pm 23.2 25.5 18.5 75 3.0 S 4 7 2 4 1014.7 1014.6 0.0
28/10:00pm 23.1 24.5 16.4 66 4.1 S 4 6 2 3 1014.7 - 0.0
28/09:30pm 23.2 25.0 15.5 62 4.6 CALM 0 0 0 0 1014.5 1014.4 0.0
28/09:00pm 23.7 25.2 15.7 61 4.8 W 2 4 1 2 1014.2 1014.1 0.0
28/08:30pm 24.0 25.2 15.8 60 5.0 SW 4 6 2 3 1014.0 1013.9 0.0
28/08:00pm 25.3 26.4 14.7 51 6.3 NNE 2 4 1 2 1013.5 - 0.0
28/07:30pm 26.4 27.2 14.8 49 7.0 NNE 4 4 2 2 1013.2 1013.1 0.0
28/07:00pm 27.6 28.3 14.6 45 7.8 NNE 4 6 2 3 1012.7 - 0.0
28/06:30pm 29.1 29.3 14.1 40 9.0 NE 6 11 3 6 1012.3 1012.2 0.0
28/06:00pm 31.3 30.3 11.1 29 11.7 ENE 7 9 4 5 1011.8 1011.7 0.0
28/05:30pm 32.3 31.3 10.9 27 12.4 E 7 15 4 8 1011.7 1011.6 0.0
28/05:00pm 32.4 30.9 10.4 26 12.7 ENE 9 15 5 8 1011.5 - 0.0
28/04:30pm 32.6 30.9 10.0 25 12.9 ENE 9 15 5 8 1011.4 1011.3 0.0
28/04:00pm 32.8 31.3 8.3 22 13.7 E 6 13 3 7 1011.4 - 0.0
28/03:30pm 32.9 29.9 7.7 21 13.9 E 13 19 7 10 1011.8 1011.7 0.0
28/03:00pm 33.2 29.3 8.6 22 13.8 ESE 19 26 10 14 1012.0 1011.9 0.0
28/02:30pm 33.1 29.2 8.5 22 13.8 SE 19 26 10 14 1012.4 1012.3 0.0
28/02:00pm 33.0 29.8 8.5 22 13.7 ESE 15 22 8 12 1012.8 - 0.0
28/01:30pm 32.7 29.9 10.1 25 13.0 E 15 28 8 15 1013.3 1013.2 0.0
28/01:00pm 32.1 30.0 11.3 28 12.1 SE 13 22 7 12 1013.8 - 0.0
28/12:30pm 31.9 29.4 12.2 30 11.6 SE 17 28 9 15 1014.3 1014.2 0.0
28/12:00pm 31.3 28.4 12.2 31 11.2 SE 19 32 10 17 1014.9 1014.8 0.0
28/11:30am 30.3 27.1 11.8 32 10.8 ESE 20 33 11 18 1015.4 1015.3 0.0
28/11:00am 30.0 27.9 13.7 37 9.8 E 17 28 9 15 1015.9 - 0.0
28/10:30am 29.3 27.4 14.3 40 9.0 E 17 28 9 15 1016.0 1015.9 0.0
28/10:00am 28.0 25.7 14.6 44 8.1 E 20 32 11 17 1016.2 - 0.0
28/09:30am 27.5 26.5 14.5 45 7.8 E 13 22 7 12 1016.3 1016.2 0.0
28/09:00am 25.7 26.7 16.8 58 5.5 ESE 7 11 4 6 1016.4 1016.3 0.0
28/08:30am 23.1 26.5 19.3 79 2.4 CALM 0 0 0 0 1016.2 1016.1 0.0
28/08:00am 19.3 21.9 17.4 89 1.2 CALM 0 0 0 0 1016.1 - 0.0
28/07:30am 17.0 19.0 15.9 93 0.6 CALM 0 0 0 0 1015.8 1015.7 0.0
28/07:00am 17.0 18.8 15.5 91 0.9 CALM 0 0 0 0 1015.7 - 0.0
28/06:30am 17.3 19.3 16.0 92 0.8 CALM 0 0 0 0 1015.4 1015.3 0.0
28/06:00am 17.4 19.4 16.1 92 0.8 CALM 0 0 0 0 1015.1 1015.0 0.0
28/05:30am 17.4 19.4 15.9 91 0.9 CALM 0 0 0 0 1014.7 1014.6 0.0
28/05:00am 17.9 19.9 16.1 89 1.1 CALM 0 0 0 0 1014.6 - 0.0
28/04:30am 18.3 20.5 16.5 89 1.1 CALM 0 0 0 0 1014.4 1014.3 0.0
28/04:00am 18.6 20.9 16.8 89 1.1 CALM 0 0 0 0 1014.3 - 0.0
28/03:30am 18.6 20.8 16.6 88 1.2 CALM 0 0 0 0 1014.3 1014.2 0.0
28/03:00am 19.3 21.7 17.1 87 1.3 CALM 0 0 0 0 1014.6 1014.5 0.0
28/02:30am 19.4 21.9 17.2 87 1.3 CALM 0 0 0 0 1014.8 1014.7 0.0
28/02:00am 20.0 22.6 17.6 86 1.5 CALM 0 0 0 0 1015.0 - 0.0
28/01:30am 20.8 23.1 17.8 83 1.9 SE 2 4 1 2 1015.3 1015.2 0.0
28/01:00am 20.6 22.6 17.0 80 2.2 E 2 4 1 2 1015.5 - 0.0
28/12:30am 20.7 23.0 16.7 78 2.4 CALM 0 0 0 0 1015.5 1015.4 0.0
28/12:00am 21.8 24.2 17.0 74 2.9 CALM 0 0 0 0 1015.6 1015.5 0.0
 
Date/Time
CST
Tmp

°C
App
Tmp
°C
Dew
Point
°C
Rel
Hum
%
Delta-T

°C
Wind Press
QNH
hPa
Press
MSL
hPa
Rain
since
9 am
mm
Dir
 
Spd
km/h
Gust
km/h
Spd
kts
Gust
kts
27/11:30pm 23.6 26.0 18.9 75 3.0 S 4 7 2 4 1015.6 1015.5 0.0
27/11:00pm 23.8 25.6 18.2 71 3.5 SSW 6 9 3 5 1015.6 - 0.0
27/10:30pm 23.7 25.1 17.7 69 3.7 SSW 7 11 4 6 1015.6 1015.5 0.0
27/10:00pm 23.1 24.5 17.3 70 3.6 SSW 6 7 3 4 1015.4 - 0.0
27/09:30pm 23.1 24.4 17.6 71 3.4 SSW 7 9 4 5 1015.2 1015.1 0.0
27/09:00pm 22.6 25.0 16.9 70 3.5 CALM 0 6 0 3 1014.9 1014.8 0.0
27/08:30pm 24.1 26.1 16.9 64 4.4 NE 2 4 1 2 1014.5 1014.4 0.0
27/08:00pm 24.7 26.2 16.7 61 4.9 NNE 4 4 2 2 1014.1 - 0.0
27/07:30pm 26.1 28.1 16.9 57 5.7 NE 2 4 1 2 1013.6 1013.5 0.0
27/07:00pm 27.4 29.2 17.3 54 6.3 NE 4 6 2 3 1013.1 - 0.0
27/06:30pm 28.4 29.6 17.3 51 7.0 NNE 7 13 4 7 1012.7 1012.6 0.0
27/06:00pm 29.5 29.8 17.0 47 7.9 NNE 11 17 6 9 1012.3 1012.2 0.0
27/05:30pm 30.8 31.5 17.1 43 8.7 NNE 9 15 5 8 1011.9 1011.8 0.0
27/05:00pm 32.0 31.5 15.9 38 10.1 ENE 13 24 7 13 1011.6 - 0.0
27/04:30pm 32.9 31.3 14.0 32 11.5 ENE 15 20 8 11 1011.5 1011.4 0.0
27/04:00pm 33.3 32.1 13.9 31 11.8 E 13 22 7 12 1011.7 - 0.0
27/03:30pm 33.1 31.6 14.2 32 11.6 E 15 20 8 11 1012.0 1011.9 0.0
27/03:00pm 33.4 32.0 14.5 32 11.6 ESE 15 24 8 13 1012.2 1012.1 0.0
27/02:30pm 32.9 31.5 14.5 33 11.3 E 15 24 8 13 1012.6 1012.5 0.0
27/02:00pm 32.4 30.5 14.1 33 11.1 E 17 26 9 14 1013.2 - 0.0
27/01:30pm 32.1 29.7 13.8 33 11.1 SE 19 28 10 15 1013.8 1013.7 0.0
27/01:00pm 31.6 29.0 13.8 34 10.8 E 20 30 11 16 1014.4 - 0.0
27/12:30pm 31.5 29.4 14.6 36 10.3 ENE 19 24 10 13 1014.9 1014.8 0.0
27/12:00pm 31.6 30.0 15.1 36 10.2 E 17 26 9 14 1015.5 1015.4 0.0
27/11:30am 30.4 28.4 14.9 39 9.5 E 19 30 10 16 1016.0 1015.9 0.0
27/11:00am 29.2 26.9 15.7 44 8.3 E 22 32 12 17 1016.6 - 0.0
27/10:30am 29.0 28.1 15.9 45 8.1 E 15 26 8 14 1016.8 1016.7 0.0
27/10:00am 28.1 28.0 17.0 51 7.0 ESE 13 19 7 10 1017.0 - 0.0
27/09:30am 26.7 27.6 18.3 60 5.3 ESE 11 19 6 10 1017.0 1016.9 0.0
27/09:00am 24.6 28.0 20.1 76 2.9 SE 2 6 1 3 1017.1 1017.0 0.0
27/08:30am 21.6 24.2 19.2 86 1.5 N 4 6 2 3 1017.0 1016.9 0.0
27/08:00am 18.3 20.7 17.0 92 0.8 CALM 0 0 0 0 1016.6 - 0.0
27/07:30am 16.9 18.4 15.6 92 0.8 SSE 2 4 1 2 1016.4 1016.3 0.0
27/07:00am 17.1 19.0 15.8 92 0.8 CALM 0 0 0 0 1016.1 - 0.0
27/06:30am 17.3 19.2 15.8 91 0.9 CALM 0 0 0 0 1016.0 1015.9 0.0
27/06:00am 17.6 19.6 16.1 91 0.9 CALM 0 0 0 0 1015.6 1015.5 0.0
27/05:30am 18.0 20.1 16.2 89 1.1 CALM 0 0 0 0 1015.6 1015.5 0.0
27/05:00am 18.4 20.6 16.6 89 1.1 CALM 0 0 0 0 1015.5 - 0.0
27/04:30am 19.0 21.3 16.8 87 1.3 CALM 0 0 0 0 1015.4 1015.3 0.0
27/04:00am 19.5 21.9 16.9 85 1.6 CALM 0 0 0 0 1015.5 - 0.0
27/03:30am 19.8 22.4 17.4 86 1.5 CALM 0 0 0 0 1015.8 1015.7 0.0
27/03:00am 19.9 22.3 17.1 84 1.7 CALM 0 0 0 0 1015.9 1015.8 0.0
27/02:30am 19.7 22.2 17.3 86 1.5 CALM 0 0 0 0 1016.3 1016.2 0.0
27/02:00am 19.4 21.7 16.8 85 1.6 CALM 0 0 0 0 1016.5 - 0.0
27/01:30am 20.1 22.4 16.7 81 2.1 CALM 0 0 0 0 1016.8 1016.7 0.0
27/01:00am 20.4 23.0 17.4 83 1.8 CALM 0 0 0 0 1016.7 - 0.0
27/12:30am 20.6 23.0 17.0 80 2.2 CALM 0 2 0 1 1016.6 1016.5 0.0
27/12:00am 21.6 24.0 18.0 80 2.2 SSW 2 2 1 1 1016.8 1016.7 0.0
 
Date/Time
CST
Tmp

°C
App
Tmp
°C
Dew
Point
°C
Rel
Hum
%
Delta-T

°C
Wind Press
QNH
hPa
Press
MSL
hPa
Rain
since
9 am
mm
Dir
 
Spd
km/h
Gust
km/h
Spd
kts
Gust
kts
26/11:30pm 21.9 24.5 17.5 76 2.7 CALM 0 2 0 1 1016.8 1016.7 0.0
26/11:00pm 21.9 23.7 17.5 76 2.7 S 4 6 2 3 1016.8 - 0.0
26/10:30pm 21.7 23.5 17.3 76 2.7 S 4 6 2 3 1016.6 1016.5 0.0
26/10:00pm 21.8 23.4 17.0 74 2.9 SSE 4 6 2 3 1016.6 - 0.0
26/09:30pm 22.6 24.3 17.1 71 3.4 E 4 9 2 5 1016.4 1016.3 0.0
26/09:00pm 23.2 25.0 18.3 74 3.1 SW 6 7 3 4 1015.8 1015.7 0.0
26/08:30pm 22.6 23.1 15.0 62 4.5 WSW 6 7 3 4 1015.6 1015.5 0.0
26/08:00pm 24.4 25.8 16.4 61 4.9 WSW 4 7 2 4 1015.3 - 0.0
26/07:30pm 25.7 26.9 16.0 55 5.9 N 4 6 2 3 1014.9 1014.8 0.0
26/07:00pm 27.3 28.2 16.0 50 6.9 NE 6 9 3 5 1014.6 - 0.0
26/06:30pm 28.9 28.7 13.6 39 9.1 NE 7 15 4 8 1014.1 1014.0 0.0

Latest Capital City Observations: Canberra | Sydney | Melbourne | Brisbane | Adelaide | Perth | Hobart | Darwin

Other Formats:

Comma delimited format used in spreadsheet applications
http://www.bom.gov.au/fwo/IDD60901/IDD60901.94105.axf

JavaScript Object Notation format (JSON) in row-major order
http://www.bom.gov.au/fwo/IDD60901/IDD60901.94105.json